Time;durP1;ratioP1;P1;durP2;ratioP2;P2;SDS_P1;SDS_P2;PMS_P1;PMS_P2;Temp;Humidity;BMP_temperature;BMP_pressure;BME280_temperature;BME280_humidity;BME280_pressure;Samples;Min_cycle;Max_cycle;Signal;HPM_P1;HPM_P2
2021/01/08 00:01:55;;;;;;;22.83;18.20;;;;;;;;;;5033066;28;20021;-67
2021/01/08 00:04:21;;;;;;;23.33;16.47;;;;;;;;;;5033359;28;20097;-70
2021/01/08 00:06:47;;;;;;;27.07;17.70;;;;;;;;;;5033145;28;20030;-67
2021/01/08 00:09:13;;;;;;;24.60;18.77;;;;;;;;;;5033079;28;20034;-67
2021/01/08 00:11:39;;;;;;;26.47;18.80;;;;;;;;;;5033268;28;20052;-67
2021/01/08 00:14:05;;;;;;;25.17;18.27;;;;;;;;;;5033214;28;20101;-67
2021/01/08 00:16:35;;;;;;;26.57;19.10;;;;;;;;;;5033114;28;20498;-66
2021/01/08 00:19:01;;;;;;;25.80;19.07;;;;;;;;;;5033149;28;20052;-67
2021/01/08 00:21:37;;;;;;;25.50;18.13;;;;;;;;;;5033184;28;20074;-67
2021/01/08 00:24:04;;;;;;;26.70;19.20;;;;;;;;;;5033143;28;20032;-67
2021/01/08 00:26:30;;;;;;;25.40;18.10;;;;;;;;;;5032835;28;20022;-68
2021/01/08 00:28:56;;;;;;;25.40;17.47;;;;;;;;;;5032837;28;20037;-67
2021/01/08 00:31:22;;;;;;;24.27;16.20;;;;;;;;;;5032663;28;20028;-66
2021/01/08 00:33:48;;;;;;;20.50;15.40;;;;;;;;;;5033274;28;20029;-67
2021/01/08 00:36:14;;;;;;;18.40;12.67;;;;;;;;;;5032849;28;20030;-66
2021/01/08 00:38:40;;;;;;;17.37;12.90;;;;;;;;;;5033031;28;20101;-67
2021/01/08 00:41:06;;;;;;;21.67;14.27;;;;;;;;;;5032976;28;20383;-68
2021/01/08 00:43:32;;;;;;;23.77;16.37;;;;;;;;;;5033001;28;20381;-66
2021/01/08 00:45:58;;;;;;;25.60;18.47;;;;;;;;;;5034294;28;20360;-67
2021/01/08 00:48:24;;;;;;;27.07;17.93;;;;;;;;;;5036694;28;20559;-67
2021/01/08 00:50:50;;;;;;;25.70;17.30;;;;;;;;;;5036650;28;20029;-67
2021/01/08 00:53:16;;;;;;;25.77;18.83;;;;;;;;;;5036830;28;20025;-66
2021/01/08 00:55:42;;;;;;;28.00;20.03;;;;;;;;;;5036812;28;20096;-67
2021/01/08 00:58:08;;;;;;;25.53;16.63;;;;;;;;;;5036330;28;20443;-67
2021/01/08 01:00:34;;;;;;;26.80;17.67;;;;;;;;;;5036611;28;20022;-67
2021/01/08 01:03:00;;;;;;;29.13;18.67;;;;;;;;;;5036268;28;20355;-67
2021/01/08 01:05:27;;;;;;;25.33;18.73;;;;;;;;;;5036359;28;20021;-67
2021/01/08 01:07:52;;;;;;;27.43;18.97;;;;;;;;;;5036435;28;20044;-67
2021/01/08 01:10:19;;;;;;;27.80;18.87;;;;;;;;;;5036385;28;20025;-67
2021/01/08 01:12:45;;;;;;;25.17;17.13;;;;;;;;;;5036230;28;20059;-67
2021/01/08 01:15:11;;;;;;;28.73;19.27;;;;;;;;;;5036475;28;20025;-67
2021/01/08 01:17:41;;;;;;;27.87;20.80;;;;;;;;;;5036015;28;20092;-66
2021/01/08 01:20:07;;;;;;;29.50;21.03;;;;;;;;;;5036143;28;20029;-67
2021/01/08 01:22:33;;;;;;;31.57;22.23;;;;;;;;;;5035972;28;20049;-67
2021/01/08 01:24:59;;;;;;;28.30;19.63;;;;;;;;;;5035927;28;20037;-66
2021/01/08 01:27:25;;;;;;;28.23;19.70;;;;;;;;;;5035930;28;20033;-67
2021/01/08 01:29:51;;;;;;;25.93;19.03;;;;;;;;;;5036088;28;20030;-66
2021/01/08 01:32:17;;;;;;;29.53;20.60;;;;;;;;;;5035925;28;20547;-66
2021/01/08 01:34:43;;;;;;;28.90;20.10;;;;;;;;;;5035682;28;20371;-66
2021/01/08 01:37:09;;;;;;;29.03;20.43;;;;;;;;;;5035939;28;20040;-66
2021/01/08 01:39:35;;;;;;;28.50;19.97;;;;;;;;;;5036083;28;20091;-66
2021/01/08 01:42:01;;;;;;;28.07;20.30;;;;;;;;;;5035785;28;20388;-66
2021/01/08 01:44:27;;;;;;;31.37;20.63;;;;;;;;;;5035818;28;20029;-66
2021/01/08 01:46:53;;;;;;;26.13;20.13;;;;;;;;;;5035574;28;20423;-69
2021/01/08 01:49:19;;;;;;;30.53;22.13;;;;;;;;;;5035765;28;20151;-67
2021/01/08 01:51:45;;;;;;;27.70;20.63;;;;;;;;;;5035820;28;20026;-66
2021/01/08 01:54:11;;;;;;;31.43;22.23;;;;;;;;;;5035769;28;20033;-66
2021/01/08 01:56:37;;;;;;;29.17;20.10;;;;;;;;;;5035210;28;20025;-66
2021/01/08 01:59:03;;;;;;;27.60;19.77;;;;;;;;;;5033121;28;20113;-67
2021/01/08 02:01:29;;;;;;;27.57;19.40;;;;;;;;;;5032517;28;20119;-67
2021/01/08 02:03:57;;;;;;;26.80;18.83;;;;;;;;;;5033022;28;20037;-67
2021/01/08 02:06:26;;;;;;;27.60;20.13;;;;;;;;;;5034892;28;20029;-66
2021/01/08 02:08:56;;;;;;;29.10;20.27;;;;;;;;;;5035110;28;20037;-69
2021/01/08 02:11:26;;;;;;;32.97;20.50;;;;;;;;;;5035018;28;20021;-67
2021/01/08 02:14:01;;;;;;;29.70;20.07;;;;;;;;;;5034735;28;20045;-66
2021/01/08 02:16:30;;;;;;;29.00;19.83;;;;;;;;;;5034703;28;20022;-67
2021/01/08 02:18:57;;;;;;;28.57;18.40;;;;;;;;;;5034721;28;20053;-67
2021/01/08 02:21:25;;;;;;;23.67;17.33;;;;;;;;;;5034335;28;20075;-69
2021/01/08 02:23:58;;;;;;;29.03;18.53;;;;;;;;;;5034958;28;20029;-67
2021/01/08 02:26:24;;;;;;;25.20;17.30;;;;;;;;;;5034944;28;20053;-67
2021/01/08 02:28:50;;;;;;;24.53;17.37;;;;;;;;;;5034471;28;20120;-67
2021/01/08 02:31:17;;;;;;;20.63;16.17;;;;;;;;;;5034691;28;20025;-66
2021/01/08 02:33:43;;;;;;;20.03;14.53;;;;;;;;;;5034855;28;20033;-67
2021/01/08 02:36:10;;;;;;;20.43;15.40;;;;;;;;;;5034410;28;20390;-70
2021/01/08 02:38:36;;;;;;;20.97;14.27;;;;;;;;;;5034819;28;20113;-66
2021/01/08 02:41:03;;;;;;;20.87;13.47;;;;;;;;;;5034618;28;20429;-67
2021/01/08 02:43:31;;;;;;;19.53;13.23;;;;;;;;;;5034368;28;20032;-67
2021/01/08 02:45:57;;;;;;;15.87;12.00;;;;;;;;;;5034431;28;20029;-67
2021/01/08 02:48:23;;;;;;;22.70;12.43;;;;;;;;;;5034044;28;20401;-67
2021/01/08 02:50:49;;;;;;;15.63;11.20;;;;;;;;;;5034122;28;20029;-67
2021/01/08 02:53:16;;;;;;;13.97;10.00;;;;;;;;;;5034151;28;20055;-67
2021/01/08 02:55:49;;;;;;;13.60;9.47;;;;;;;;;;5034168;28;20367;-67
2021/01/08 02:58:15;;;;;;;16.25;9.57;;;;;;;;;;5033985;28;20037;-66
2021/01/08 03:00:41;;;;;;;14.20;9.53;;;;;;;;;;5034184;28;20030;-67
2021/01/08 03:03:07;;;;;;;10.93;8.30;;;;;;;;;;5033767;28;20033;-67
2021/01/08 03:05:34;;;;;;;11.77;8.27;;;;;;;;;;5034196;28;20040;-70
2021/01/08 03:08:01;;;;;;;11.33;8.07;;;;;;;;;;5033417;28;20037;-67
2021/01/08 03:10:27;;;;;;;12.20;7.67;;;;;;;;;;5033577;28;20018;-67
2021/01/08 03:12:57;;;;;;;10.60;7.60;;;;;;;;;;5034150;28;20385;-67
2021/01/08 03:15:23;;;;;;;9.93;7.53;;;;;;;;;;5034162;28;20486;-66
2021/01/08 03:17:50;;;;;;;10.87;7.60;;;;;;;;;;5033719;28;20044;-66
2021/01/08 03:20:16;;;;;;;10.10;7.43;;;;;;;;;;5033964;28;20022;-69
2021/01/08 03:22:42;;;;;;;8.37;6.43;;;;;;;;;;5033941;28;20383;-67
2021/01/08 03:25:08;;;;;;;9.43;7.10;;;;;;;;;;5033637;28;20026;-67
2021/01/08 03:27:34;;;;;;;14.13;8.23;;;;;;;;;;5033669;28;20559;-67
2021/01/08 03:30:00;;;;;;;10.63;7.50;;;;;;;;;;5034001;28;20089;-67
2021/01/08 03:32:26;;;;;;;9.50;7.17;;;;;;;;;;5033702;28;20037;-67
2021/01/08 03:34:52;;;;;;;9.83;7.57;;;;;;;;;;5033884;28;20152;-67
2021/01/08 03:37:18;;;;;;;9.90;7.03;;;;;;;;;;5033662;28;20021;-67
2021/01/08 03:39:44;;;;;;;11.60;8.40;;;;;;;;;;5033570;28;20033;-66
2021/01/08 03:42:10;;;;;;;11.77;7.60;;;;;;;;;;5033762;28;20045;-67
2021/01/08 03:44:37;;;;;;;9.90;7.87;;;;;;;;;;5033416;28;20025;-66
2021/01/08 03:47:03;;;;;;;12.90;10.27;;;;;;;;;;5033365;28;20559;-67
2021/01/08 03:49:29;;;;;;;16.47;11.23;;;;;;;;;;5033572;28;20025;-66
2021/01/08 03:51:55;;;;;;;14.53;12.03;;;;;;;;;;5033274;28;20029;-67
2021/01/08 03:54:21;;;;;;;15.33;11.43;;;;;;;;;;5033402;28;20053;-67
2021/01/08 03:56:47;;;;;;;13.83;11.63;;;;;;;;;;5033131;28;20021;-66
2021/01/08 03:59:13;;;;;;;14.60;11.53;;;;;;;;;;5033086;28;20422;-67
2021/01/08 04:01:39;;;;;;;13.67;11.53;;;;;;;;;;5033211;28;20049;-67
2021/01/08 04:04:05;;;;;;;19.47;12.63;;;;;;;;;;5033300;28;20025;-66
2021/01/08 04:06:31;;;;;;;14.73;12.10;;;;;;;;;;5033109;28;20025;-67
2021/01/08 04:08:57;;;;;;;14.33;11.60;;;;;;;;;;5033344;28;20038;-67
2021/01/08 04:11:23;;;;;;;13.77;11.50;;;;;;;;;;5033190;28;20032;-67
2021/01/08 04:13:49;;;;;;;14.77;11.93;;;;;;;;;;5033360;28;20022;-66
2021/01/08 04:16:15;;;;;;;15.27;11.43;;;;;;;;;;5033249;28;20116;-66
2021/01/08 04:18:41;;;;;;;14.77;11.73;;;;;;;;;;5033092;28;20073;-66
2021/01/08 04:21:07;;;;;;;14.27;11.07;;;;;;;;;;5036028;28;20017;-67
2021/01/08 04:23:33;;;;;;;18.23;11.97;;;;;;;;;;5037259;28;20068;-66
2021/01/08 04:25:59;;;;;;;16.47;11.77;;;;;;;;;;5037094;28;20037;-66
2021/01/08 04:28:26;;;;;;;16.37;11.93;;;;;;;;;;5036852;28;20044;-67
2021/01/08 04:30:52;;;;;;;14.47;11.13;;;;;;;;;;5037060;28;20045;-66
2021/01/08 04:33:18;;;;;;;14.37;10.97;;;;;;;;;;5035613;28;20441;-67
2021/01/08 04:35:44;;;;;;;13.87;10.87;;;;;;;;;;5037099;28;20029;-67
2021/01/08 04:38:10;;;;;;;14.10;10.80;;;;;;;;;;5037034;28;20030;-66
2021/01/08 04:40:36;;;;;;;12.80;9.07;;;;;;;;;;5036772;28;20017;-67
2021/01/08 04:43:03;;;;;;;13.03;9.90;;;;;;;;;;5037093;28;20028;-66
2021/01/08 04:45:29;;;;;;;13.60;8.63;;;;;;;;;;5036985;28;20025;-66
2021/01/08 04:47:56;;;;;;;11.63;8.60;;;;;;;;;;5036645;28;20073;-66
2021/01/08 04:50:24;;;;;;;11.63;8.67;;;;;;;;;;5036737;28;20048;-67
2021/01/08 04:52:50;;;;;;;12.20;8.23;;;;;;;;;;5036664;28;20037;-66
2021/01/08 04:55:17;;;;;;;10.53;7.80;;;;;;;;;;5036729;28;20385;-70
2021/01/08 04:57:43;;;;;;;9.87;7.60;;;;;;;;;;5036678;28;20096;-67
2021/01/08 05:00:10;;;;;;;10.57;7.90;;;;;;;;;;5036435;28;20056;-66
2021/01/08 05:02:36;;;;;;;11.73;7.83;;;;;;;;;;5036583;28;20025;-67
2021/01/08 05:05:02;;;;;;;10.90;7.50;;;;;;;;;;5036150;28;20096;-66
2021/01/08 05:07:28;;;;;;;14.60;7.40;;;;;;;;;;5036643;28;20056;-67
2021/01/08 05:09:54;;;;;;;10.07;7.83;;;;;;;;;;5036289;28;20109;-67
2021/01/08 05:12:28;;;;;;;10.70;7.60;;;;;;;;;;5036405;28;20032;-67
2021/01/08 05:14:55;;;;;;;9.90;7.20;;;;;;;;;;5036254;28;20029;-67
2021/01/08 05:17:29;;;;;;;8.97;7.03;;;;;;;;;;5035953;28;20045;-67
2021/01/08 05:19:55;;;;;;;11.03;6.90;;;;;;;;;;5036140;28;20026;-67
2021/01/08 05:22:22;;;;;;;8.87;6.10;;;;;;;;;;5036239;28;20060;-67
2021/01/08 05:24:48;;;;;;;8.93;5.93;;;;;;;;;;5036291;28;20056;-67
2021/01/08 05:27:14;;;;;;;9.90;6.40;;;;;;;;;;5035892;28;20083;-67
2021/01/08 05:29:40;;;;;;;10.17;6.33;;;;;;;;;;5036134;28;20021;-67
2021/01/08 05:32:06;;;;;;;9.77;5.90;;;;;;;;;;5035374;28;20024;-68
2021/01/08 05:34:33;;;;;;;9.37;5.97;;;;;;;;;;5036197;28;20013;-66
2021/01/08 05:36:59;;;;;;;9.33;5.90;;;;;;;;;;5035720;28;20503;-67
2021/01/08 05:39:26;;;;;;;7.30;5.10;;;;;;;;;;5035566;28;20064;-66
2021/01/08 05:41:52;;;;;;;7.77;5.60;;;;;;;;;;5035809;28;20523;-66
2021/01/08 05:44:18;;;;;;;7.67;4.90;;;;;;;;;;5035768;28;20032;-66
2021/01/08 05:46:44;;;;;;;7.27;5.27;;;;;;;;;;5035391;28;20068;-67
2021/01/08 05:49:11;;;;;;;9.03;5.03;;;;;;;;;;5035594;28;20040;-67
2021/01/08 05:51:38;;;;;;;8.20;5.37;;;;;;;;;;5035619;28;20021;-67
2021/01/08 05:54:04;;;;;;;9.70;5.17;;;;;;;;;;5035503;28;20080;-66
2021/01/08 05:56:34;;;;;;;9.73;5.73;;;;;;;;;;5035798;28;20018;-67
2021/01/08 05:59:01;;;;;;;9.73;6.30;;;;;;;;;;5035283;28;20025;-67
2021/01/08 06:01:29;;;;;;;9.10;6.67;;;;;;;;;;5035342;28;20128;-67
2021/01/08 06:03:56;;;;;;;9.33;6.43;;;;;;;;;;5035362;28;20021;-67
2021/01/08 06:06:24;;;;;;;9.87;6.90;;;;;;;;;;5035348;28;20026;-67
2021/01/08 06:08:54;;;;;;;9.47;6.50;;;;;;;;;;5034718;28;20486;-67
2021/01/08 06:11:20;;;;;;;13.10;9.60;;;;;;;;;;5035318;28;20026;-67
2021/01/08 06:13:50;;;;;;;12.37;9.23;;;;;;;;;;5034983;28;20382;-66
2021/01/08 06:16:20;;;;;;;14.43;10.70;;;;;;;;;;5035278;28;20381;-67
2021/01/08 06:18:47;;;;;;;18.03;12.17;;;;;;;;;;5035425;28;20045;-67
2021/01/08 06:21:13;;;;;;;16.23;12.03;;;;;;;;;;5034880;28;20033;-67
2021/01/08 06:23:39;;;;;;;16.03;11.13;;;;;;;;;;5034840;28;20462;-66
2021/01/08 06:26:06;;;;;;;15.07;11.20;;;;;;;;;;5034766;28;20026;-67
2021/01/08 06:28:36;;;;;;;14.50;10.43;;;;;;;;;;5034719;28;20044;-67
2021/01/08 06:31:05;;;;;;;14.73;10.80;;;;;;;;;;5034709;28;20021;-71
2021/01/08 06:33:35;;;;;;;13.97;11.40;;;;;;;;;;5034599;28;20387;-67
2021/01/08 06:36:18;;;;;;;17.80;12.57;;;;;;;;;;5034533;28;20092;-67
2021/01/08 06:38:49;;;;;;;16.57;13.17;;;;;;;;;;5034916;28;20022;-67
2021/01/08 06:41:16;;;;;;;15.10;11.50;;;;;;;;;;5034934;28;20127;-67
2021/01/08 06:43:46;;;;;;;14.27;11.53;;;;;;;;;;5033641;28;20025;-66
2021/01/08 06:46:29;;;;;;;14.20;10.13;;;;;;;;;;5034105;28;20033;-66
2021/01/08 06:48:56;;;;;;;13.88;9.45;;;;;;;;;;5034504;28;20037;-66
2021/01/08 06:51:26;;;;;;;13.00;9.43;;;;;;;;;;5034600;28;20103;-67
2021/01/08 06:53:55;;;;;;;13.43;10.13;;;;;;;;;;5034316;28;20029;-67
2021/01/08 06:56:28;;;;;;;13.77;9.43;;;;;;;;;;5034296;28;20355;-67
2021/01/08 06:58:55;;;;;;;10.37;8.03;;;;;;;;;;5033994;28;20091;-67
2021/01/08 07:01:23;;;;;;;11.50;8.03;;;;;;;;;;5034238;28;20025;-67
2021/01/08 07:03:51;;;;;;;12.27;9.00;;;;;;;;;;5034113;28;20029;-67
2021/01/08 07:06:17;;;;;;;11.33;8.27;;;;;;;;;;5034243;28;20049;-67
2021/01/08 07:08:43;;;;;;;14.00;8.80;;;;;;;;;;5034226;28;20060;-66
2021/01/08 07:11:22;;;;;;;11.80;8.20;;;;;;;;;;5034132;28;20087;-67
2021/01/08 07:13:48;;;;;;;13.97;8.60;;;;;;;;;;5033921;28;20028;-67
2021/01/08 07:16:20;;;;;;;12.83;8.93;;;;;;;;;;5034005;28;20437;-67
2021/01/08 07:18:47;;;;;;;12.95;8.25;;;;;;;;;;5032415;28;20380;-67
2021/01/08 07:21:22;;;;;;;11.57;7.97;;;;;;;;;;5034028;28;20029;-67
2021/01/08 07:23:49;;;;;;;11.93;7.87;;;;;;;;;;5033716;28;20478;-67
2021/01/08 07:26:18;;;;;;;11.10;7.50;;;;;;;;;;5033840;28;20033;-67
2021/01/08 07:28:51;;;;;;;11.27;7.80;;;;;;;;;;5033488;28;20496;-67
2021/01/08 07:31:26;;;;;;;11.87;7.43;;;;;;;;;;5033894;28;20037;-66
2021/01/08 07:33:52;;;;;;;8.93;6.83;;;;;;;;;;5033717;28;20112;-66
2021/01/08 07:36:20;;;;;;;10.23;7.17;;;;;;;;;;5033593;28;20029;-66
2021/01/08 07:38:46;;;;;;;15.63;7.00;;;;;;;;;;5033663;28;20148;-67
2021/01/08 07:41:12;;;;;;;12.43;7.13;;;;;;;;;;5033303;28;20140;-66
2021/01/08 07:43:38;;;;;;;8.70;6.07;;;;;;;;;;5033426;28;20021;-66
2021/01/08 07:46:05;;;;;;;8.20;5.90;;;;;;;;;;5033497;28;20044;-66
2021/01/08 07:48:35;;;;;;;9.77;6.30;;;;;;;;;;5033222;28;20107;-66
2021/01/08 07:51:01;;;;;;;8.37;5.67;;;;;;;;;;5033421;28;20025;-66
2021/01/08 07:53:49;;;;;;;7.40;5.50;;;;;;;;;;5033348;28;20498;-66
2021/01/08 07:56:15;;;;;;;9.57;5.53;;;;;;;;;;5033055;28;20489;-66
2021/01/08 07:58:57;;;;;;;8.43;5.20;;;;;;;;;;5033153;28;20032;-66
2021/01/08 08:01:23;;;;;;;7.20;4.68;;;;;;;;;;5033381;28;20068;-66
2021/01/08 08:03:57;;;;;;;7.00;5.00;;;;;;;;;;5032440;28;20033;-66
2021/01/08 08:06:24;;;;;;;7.67;4.80;;;;;;;;;;5030754;28;20047;-67
2021/01/08 08:08:50;;;;;;;7.47;5.30;;;;;;;;;;5031357;28;20367;-66
2021/01/08 08:11:19;;;;;;;9.13;5.47;;;;;;;;;;5031471;28;20087;-66
2021/01/08 08:13:46;;;;;;;6.13;4.40;;;;;;;;;;5032409;28;20163;-66
2021/01/08 08:16:12;;;;;;;6.83;4.50;;;;;;;;;;5031566;28;20032;-66
2021/01/08 08:18:51;;;;;;;12.97;7.40;;;;;;;;;;5031562;28;20107;-66
2021/01/08 08:21:17;;;;;;;14.07;9.40;;;;;;;;;;5031181;28;20021;-66
2021/01/08 08:23:43;;;;;;;13.43;8.70;;;;;;;;;;5032324;28;20021;-66
2021/01/08 08:26:09;;;;;;;11.87;7.67;;;;;;;;;;5032737;28;20036;-66
2021/01/08 08:28:35;;;;;;;10.70;7.00;;;;;;;;;;5032179;28;20033;-67
2021/01/08 08:31:01;;;;;;;10.40;6.50;;;;;;;;;;5028257;28;20479;-66
2021/01/08 08:33:27;;;;;;;9.87;6.10;;;;;;;;;;5028862;28;20363;-66
2021/01/08 08:35:53;;;;;;;12.30;6.57;;;;;;;;;;5031014;28;20026;-68
2021/01/08 08:38:19;;;;;;;10.37;5.83;;;;;;;;;;5030202;28;20026;-66
2021/01/08 08:40:46;;;;;;;8.23;5.97;;;;;;;;;;5028864;28;20053;-66
2021/01/08 08:43:20;;;;;;;8.97;6.30;;;;;;;;;;5030727;28;20014;-66
2021/01/08 08:45:46;;;;;;;11.07;6.10;;;;;;;;;;5032103;28;20029;-66
2021/01/08 08:48:12;;;;;;;10.27;6.43;;;;;;;;;;5032446;28;20107;-66
2021/01/08 08:50:44;;;;;;;10.70;6.20;;;;;;;;;;5031474;28;20543;-66
2021/01/08 08:53:14;;;;;;;8.88;6.07;;;;;;;;;;5032269;28;20086;-66
2021/01/08 08:55:41;;;;;;;8.53;5.83;;;;;;;;;;5031557;28;20017;-67
2021/01/08 08:58:14;;;;;;;7.10;5.13;;;;;;;;;;5031569;28;20021;-64
2021/01/08 09:00:43;;;;;;;8.30;5.07;;;;;;;;;;5032137;28;20048;-65
2021/01/08 09:03:18;;;;;;;12.80;5.93;;;;;;;;;;5032740;28;20100;-65
2021/01/08 09:05:45;;;;;;;8.40;6.10;;;;;;;;;;5032432;28;20378;-66
2021/01/08 09:08:14;;;;;;;9.53;6.20;;;;;;;;;;5035304;28;20041;-66
2021/01/08 09:10:42;;;;;;;11.20;6.43;;;;;;;;;;5036283;28;20026;-66
2021/01/08 09:13:12;;;;;;;9.97;5.90;;;;;;;;;;5036361;28;20021;-67
2021/01/08 09:15:47;;;;;;;6.50;4.73;;;;;;;;;;5036890;28;20029;-66
2021/01/08 09:18:22;;;;;;;5.53;3.53;;;;;;;;;;5035921;28;20052;-68
2021/01/08 09:21:02;;;;;;;5.50;3.43;;;;;;;;;;5036181;28;20137;-68
2021/01/08 09:23:34;;;;;;;7.77;4.53;;;;;;;;;;5036189;28;20108;-66
2021/01/08 09:26:05;;;;;;;6.37;4.73;;;;;;;;;;5036197;28;20030;-66
2021/01/08 09:28:39;;;;;;;6.10;4.10;;;;;;;;;;5035935;28;20038;-67
2021/01/08 09:31:05;;;;;;;6.33;3.70;;;;;;;;;;5035991;28;20025;-66
2021/01/08 09:33:31;;;;;;;5.27;3.70;;;;;;;;;;5035934;28;20026;-68
2021/01/08 09:35:57;;;;;;;6.10;4.10;;;;;;;;;;5036029;28;20343;-67
2021/01/08 09:38:24;;;;;;;8.00;4.50;;;;;;;;;;5035709;28;20552;-67
2021/01/08 09:40:50;;;;;;;6.70;3.53;;;;;;;;;;5035622;28;20097;-66
2021/01/08 09:43:18;;;;;;;5.83;3.90;;;;;;;;;;5035708;28;20589;-67
2021/01/08 09:45:44;;;;;;;5.43;3.97;;;;;;;;;;5035714;28;20079;-67
2021/01/08 09:48:23;;;;;;;4.70;3.53;;;;;;;;;;5035596;28;20112;-67
2021/01/08 09:51:06;;;;;;;4.33;3.20;;;;;;;;;;5035524;28;20025;-68
2021/01/08 09:53:35;;;;;;;6.70;3.85;;;;;;;;;;5035592;28;20031;-66
2021/01/08 09:56:14;;;;;;;6.20;3.90;;;;;;;;;;5035777;28;20032;-67
2021/01/08 09:58:40;;;;;;;4.30;2.77;;;;;;;;;;5035640;28;20509;-67
2021/01/08 10:01:08;;;;;;;3.40;2.63;;;;;;;;;;5035167;28;20021;-67
2021/01/08 10:03:34;;;;;;;4.03;2.43;;;;;;;;;;5035447;28;20064;-67
2021/01/08 10:06:10;;;;;;;4.30;2.73;;;;;;;;;;5035138;28;20104;-66
2021/01/08 10:08:37;;;;;;;4.20;3.00;;;;;;;;;;5035059;28;20041;-68
2021/01/08 10:11:03;;;;;;;6.70;4.77;;;;;;;;;;5035170;28;20025;-67
2021/01/08 10:13:30;;;;;;;3.93;2.47;;;;;;;;;;5035199;28;20025;-67
2021/01/08 10:15:59;;;;;;;4.70;2.63;;;;;;;;;;5034880;28;20025;-67
2021/01/08 10:18:27;;;;;;;4.50;2.60;;;;;;;;;;5034681;28;20045;-66
2021/01/08 10:20:54;;;;;;;4.03;2.70;;;;;;;;;;5034967;28;20423;-67
2021/01/08 10:23:24;;;;;;;3.37;2.30;;;;;;;;;;5034908;28;20478;-67
2021/01/08 10:25:51;;;;;;;3.77;2.40;;;;;;;;;;5035132;28;20108;-67
2021/01/08 10:28:19;;;;;;;5.17;2.40;;;;;;;;;;5034946;28;20041;-66
2021/01/08 10:30:46;;;;;;;4.40;2.40;;;;;;;;;;5034610;28;20033;-66
2021/01/08 10:33:12;;;;;;;3.00;2.40;;;;;;;;;;5033698;28;20095;-66
2021/01/08 10:35:39;;;;;;;4.63;2.70;;;;;;;;;;5034860;28;20060;-66
2021/01/08 10:38:05;;;;;;;3.37;2.13;;;;;;;;;;5034490;28;20029;-66
2021/01/08 10:40:31;;;;;;;4.37;2.87;;;;;;;;;;5034710;28;20029;-66
2021/01/08 10:42:57;;;;;;;4.20;2.90;;;;;;;;;;5034954;28;20041;-66
2021/01/08 10:45:23;;;;;;;3.63;2.80;;;;;;;;;;5034764;28;20129;-66
2021/01/08 10:47:49;;;;;;;4.00;2.53;;;;;;;;;;5034383;28;20034;-67
2021/01/08 10:50:15;;;;;;;4.27;2.90;;;;;;;;;;5034429;28;20018;-66
2021/01/08 10:52:43;;;;;;;3.63;2.20;;;;;;;;;;5034341;28;20033;-67
2021/01/08 10:55:09;;;;;;;3.07;1.93;;;;;;;;;;5034249;28;20120;-67
2021/01/08 10:57:36;;;;;;;3.23;2.03;;;;;;;;;;5034171;28;20025;-67
2021/01/08 11:00:04;;;;;;;3.50;1.83;;;;;;;;;;5034410;28;20375;-67
2021/01/08 11:02:30;;;;;;;3.40;2.10;;;;;;;;;;5034141;28;20072;-66
2021/01/08 11:04:56;;;;;;;14.33;8.20;;;;;;;;;;5034311;28;20029;-67
2021/01/08 11:07:22;;;;;;;9.97;6.07;;;;;;;;;;5033753;28;20402;-66
2021/01/08 11:09:48;;;;;;;6.37;3.73;;;;;;;;;;5033922;28;20029;-67
2021/01/08 11:12:14;;;;;;;4.20;2.50;;;;;;;;;;5034032;28;20027;-67
2021/01/08 11:14:40;;;;;;;4.73;2.30;;;;;;;;;;5033844;28;20108;-67
2021/01/08 11:17:06;;;;;;;3.10;1.90;;;;;;;;;;5033860;28;20041;-66
2021/01/08 11:19:32;;;;;;;9.50;1.50;;;;;;;;;;5033780;28;20029;-66
2021/01/08 11:21:58;;;;;;;2.23;1.60;;;;;;;;;;5033808;28;20093;-66
2021/01/08 11:24:24;;;;;;;6.40;3.10;;;;;;;;;;5034207;28;20032;-66
2021/01/08 11:26:50;;;;;;;3.07;1.70;;;;;;;;;;5034029;28;20144;-66
2021/01/08 11:29:16;;;;;;;2.87;1.60;;;;;;;;;;5033347;28;20040;-66
2021/01/08 11:31:42;;;;;;;2.90;1.80;;;;;;;;;;5033628;28;20022;-66
2021/01/08 11:34:09;;;;;;;2.70;1.90;;;;;;;;;;5033949;28;20148;-66
2021/01/08 11:36:35;;;;;;;3.23;1.90;;;;;;;;;;5033327;28;20037;-66
2021/01/08 11:39:01;;;;;;;3.37;2.00;;;;;;;;;;5033746;28;20018;-67
2021/01/08 11:41:27;;;;;;;2.50;1.77;;;;;;;;;;5033570;28;20029;-66
2021/01/08 11:43:54;;;;;;;3.93;1.70;;;;;;;;;;5033318;28;20497;-66
2021/01/08 11:46:21;;;;;;;4.77;1.93;;;;;;;;;;5033437;28;20083;-66
2021/01/08 11:48:50;;;;;;;3.00;1.60;;;;;;;;;;5033174;28;20033;-66
2021/01/08 11:51:17;;;;;;;2.40;1.60;;;;;;;;;;5033328;28;20022;-67
2021/01/08 11:53:47;;;;;;;3.37;1.67;;;;;;;;;;5033630;28;20033;-67
2021/01/08 11:56:16;;;;;;;2.77;1.70;;;;;;;;;;5031977;28;20378;-67
2021/01/08 11:58:43;;;;;;;3.40;2.00;;;;;;;;;;5033279;28;20029;-67
2021/01/08 12:01:09;;;;;;;2.70;1.70;;;;;;;;;;5032769;28;20445;-66
2021/01/08 12:03:36;;;;;;;2.43;1.73;;;;;;;;;;5032813;28;20382;-67
2021/01/08 12:06:03;;;;;;;2.37;1.80;;;;;;;;;;5033009;28;20025;-67
2021/01/08 12:08:31;;;;;;;3.10;1.60;;;;;;;;;;5032988;28;20120;-67
2021/01/08 12:10:57;;;;;;;2.70;2.03;;;;;;;;;;5033349;28;20029;-67
2021/01/08 12:13:23;;;;;;;4.13;2.27;;;;;;;;;;5033048;28;20096;-68
2021/01/08 12:15:49;;;;;;;2.97;1.80;;;;;;;;;;5033292;28;20479;-67
2021/01/08 12:18:16;;;;;;;2.67;1.60;;;;;;;;;;5030271;28;20060;-68
2021/01/08 12:20:42;;;;;;;2.03;1.37;;;;;;;;;;5030045;28;20037;-68
2021/01/08 12:23:08;;;;;;;2.17;1.20;;;;;;;;;;5031854;28;20036;-67
2021/01/08 12:25:35;;;;;;;4.17;1.93;;;;;;;;;;5033314;28;20044;-67
2021/01/08 12:28:02;;;;;;;2.63;2.00;;;;;;;;;;5032760;28;20079;-67
2021/01/08 12:30:28;;;;;;;2.83;1.77;;;;;;;;;;5032953;28;20033;-68
2021/01/08 12:32:54;;;;;;;2.57;1.60;;;;;;;;;;5032937;28;20076;-67
2021/01/08 12:35:22;;;;;;;2.73;1.63;;;;;;;;;;5032604;28;20026;-67
2021/01/08 12:37:48;;;;;;;4.63;2.10;;;;;;;;;;5032684;28;20021;-67
2021/01/08 12:40:14;;;;;;;5.73;2.30;;;;;;;;;;5032784;28;20032;-68
2021/01/08 12:42:40;;;;;;;4.70;1.97;;;;;;;;;;5033312;28;20074;-66
2021/01/08 12:45:07;;;;;;;2.93;1.93;;;;;;;;;;5034178;28;20529;-68
2021/01/08 12:47:33;;;;;;;5.13;2.43;;;;;;;;;;5034152;28;20087;-67
2021/01/08 12:49:59;;;;;;;3.93;1.90;;;;;;;;;;5036050;28;20033;-68
2021/01/08 12:52:29;;;;;;;2.67;1.57;;;;;;;;;;5036509;28;20105;-69
2021/01/08 12:54:55;;;;;;;2.77;1.80;;;;;;;;;;5036588;28;20040;-71
2021/01/08 12:57:21;;;;;;;4.13;1.87;;;;;;;;;;5036188;28;20030;-71
2021/01/08 12:59:47;;;;;;;2.80;1.77;;;;;;;;;;5036252;28;20033;-70
2021/01/08 13:02:13;;;;;;;4.43;1.80;;;;;;;;;;5036073;28;20140;-70
2021/01/08 13:04:40;;;;;;;3.13;2.10;;;;;;;;;;5036470;28;20029;-70
2021/01/08 13:07:06;;;;;;;3.37;2.17;;;;;;;;;;5036326;28;20108;-70
2021/01/08 13:09:32;;;;;;;5.37;2.63;;;;;;;;;;5036401;28;20033;-70
2021/01/08 13:11:58;;;;;;;2.90;2.03;;;;;;;;;;5036256;28;20021;-71
2021/01/08 13:14:24;;;;;;;6.27;2.97;;;;;;;;;;5033601;28;20030;-70
2021/01/08 13:16:54;;;;;;;5.67;3.17;;;;;;;;;;5033194;28;20029;-70
2021/01/08 13:19:20;;;;;;;4.10;2.23;;;;;;;;;;5034149;28;20026;-72
2021/01/08 13:21:52;;;;;;;3.83;2.00;;;;;;;;;;5035542;28;20528;-68
2021/01/08 13:24:20;;;;;;;4.13;2.30;;;;;;;;;;5036155;28;20138;-67
2021/01/08 13:26:47;;;;;;;3.80;2.10;;;;;;;;;;5036133;28;20028;-68
2021/01/08 13:29:13;;;;;;;4.43;2.10;;;;;;;;;;5035632;28;20029;-70
2021/01/08 13:31:39;;;;;;;5.00;2.00;;;;;;;;;;5036213;28;20018;-68
2021/01/08 13:34:05;;;;;;;3.43;2.40;;;;;;;;;;5035924;28;20101;-67
2021/01/08 13:36:35;;;;;;;4.07;2.57;;;;;;;;;;5035882;28;20017;-69
2021/01/08 13:39:01;;;;;;;3.00;2.17;;;;;;;;;;5035806;28;20091;-70
2021/01/08 13:41:27;;;;;;;5.17;2.10;;;;;;;;;;5034329;28;20036;-70
2021/01/08 13:43:54;;;;;;;3.60;2.10;;;;;;;;;;5035043;28;20546;-71
2021/01/08 13:46:20;;;;;;;3.80;2.07;;;;;;;;;;5034834;28;20573;-73
2021/01/08 13:48:46;;;;;;;3.60;2.20;;;6.70;86.70;;;;;;5032318;28;20375;-72
2021/01/08 13:51:22;;;;;;;7.13;2.67;;;;;;;;;;5033073;28;20033;-71
2021/01/08 13:53:49;;;;;;;4.27;2.40;;;6.90;63.10;;;;;;5032999;28;20021;-71
2021/01/08 13:56:16;;;;;;;6.03;2.73;;;6.90;64.20;;;;;;5034564;28;20025;-71
2021/01/08 13:58:42;;;;;;;4.40;2.53;;;6.90;63.60;;;;;;5034511;28;20056;-71
2021/01/08 14:01:15;;;;;;;3.53;2.10;;;6.90;63.80;;;;;;5034840;28;20025;-71
2021/01/08 14:03:45;;;;;;;4.18;2.33;;;6.90;62.80;;;;;;5034810;28;20056;-71
2021/01/08 14:06:20;;;;;;;5.63;2.70;;;6.90;62.70;;;;;;5034276;28;20071;-72
2021/01/08 14:08:47;;;;;;;3.60;2.40;;;6.90;63.10;;;;;;5033937;28;20030;-71
2021/01/08 14:11:34;;;;;;;4.20;2.33;;;6.80;63.70;;;;;;5034409;28;20040;-71
2021/01/08 14:14:01;;;;;;;3.43;2.23;;;6.80;63.40;;;;;;5028497;28;20398;-72
2021/01/08 14:16:27;;;;;;;4.23;2.30;;;6.80;61.40;;;;;;5018053;28;20030;-71
2021/01/08 14:18:54;;;;;;;2.80;2.13;;;6.90;63.40;;;;;;5014556;28;20050;-71
2021/01/08 14:21:32;;;;;;;5.43;2.63;;;6.90;64.00;;;;;;5014393;28;20030;-71
2021/01/08 14:23:58;;;;;;;3.33;2.30;;;6.90;64.20;;;;;;5013652;28;20033;-71
2021/01/08 14:26:25;;;;;;;4.60;2.40;;;6.90;63.50;;;;;;5013641;28;20489;-72
2021/01/08 14:28:51;;;;;;;7.37;2.20;;;6.90;62.60;;;;;;5001932;28;20081;-72